PWSweather.com
Personal Weather Stations
Station Observations
PEISSEN1
PeissenbergDE

PeissenbergDE

Lat: 47.791845, Lon: 11.064121

Elevation: 1929

Station Type: Davis Vantage Pro 2

wetter-peissenberg.de

High Low Average
Temperature 72.9°F22.7°C 45.0°F7.2°C 59.0°F15.0°C
Dew Point 59.1°F15.1°C 42.2°F5.7°C 51.0°F10.6°C
Winds 6.1 mph 9.8 kmh Calm Calm 1.0 mph SW1.6 kmh SW
Wind Gusts 11.0 mph17.7 kmh -- 1.0 mph1.6 kmh
Humidity 94% 51% 77%
Pressure 30.05 in1017.6 mb 29.72 in1006.4 mb -
Precipitation 0.49 in12.4 mm - -
Hour Temp Dew Point Humidity Winds Wind Gusts Pressure Precip Precip Rate Daily Precip Total
12:00 AM 53.2°F11.8°C 49.8°F9.9°C 88% Calm Calm -- 30.05 in1017.6 mb 0.00 in0.0 mm 0.00 in0.0 mm 0.49 in12.4 mm
12:10 AM 53.1°F11.7°C 49.6°F9.8°C 88% Calm Calm -- 30.05 in1017.6 mb 0.00 in0.0 mm 0.00 in0.0 mm 0.49 in12.4 mm
12:20 AM 52.7°F11.5°C 49.2°F9.6°C 88% Calm Calm -- 30.05 in1017.6 mb 0.00 in0.0 mm 0.00 in0.0 mm 0.49 in12.4 mm
02:05 AM 50.7°F10.4°C 47.6°F8.7°C 89% Calm Calm -- 30.03 in1016.9 mb 0.00 in0.0 mm 0.00 in0.0 mm 0.00 in0.0 mm
02:15 AM 50.5°F10.3°C 47.4°F8.6°C 89% Calm Calm -- 30.03 in1016.9 mb 0.00 in0.0 mm 0.00 in0.0 mm 0.00 in0.0 mm
02:25 AM 50.4°F10.2°C 47.2°F8.4°C 89% Calm Calm -- 30.02 in1016.6 mb 0.00 in0.0 mm 0.00 in0.0 mm 0.00 in0.0 mm
04:00 AM 48.7°F9.3°C 45.9°F7.7°C 90% Calm Calm -- 30.00 in1015.9 mb 0.00 in0.0 mm 0.00 in0.0 mm 0.00 in0.0 mm
04:10 AM 48.4°F9.1°C 45.6°F7.6°C 90% Calm Calm -- 30.00 in1015.9 mb 0.00 in0.0 mm 0.00 in0.0 mm 0.00 in0.0 mm
04:20 AM 48.0°F8.9°C 45.2°F7.3°C 90% Calm Calm -- 30.00 in1015.9 mb 0.00 in0.0 mm 0.00 in0.0 mm 0.00 in0.0 mm
06:00 AM 45.5°F7.5°C 42.7°F5.9°C 90% Calm Calm -- 29.97 in1014.9 mb 0.00 in0.0 mm 0.00 in0.0 mm 0.00 in0.0 mm
06:10 AM 45.3°F7.4°C 42.6°F5.9°C 90% Calm Calm -- 29.97 in1014.9 mb 0.00 in0.0 mm 0.00 in0.0 mm 0.00 in0.0 mm
06:20 AM 45.0°F7.2°C 42.2°F5.7°C 90% Calm Calm -- 29.96 in1014.6 mb 0.00 in0.0 mm 0.00 in0.0 mm 0.00 in0.0 mm
08:00 AM 47.7°F8.7°C 46.0°F7.8°C 94% Calm Calm -- 29.94 in1013.9 mb 0.00 in0.0 mm 0.00 in0.0 mm 0.00 in0.0 mm
08:10 AM 48.4°F9.1°C 46.7°F8.2°C 94% Calm Calm -- 29.93 in1013.5 mb 0.00 in0.0 mm 0.00 in0.0 mm 0.00 in0.0 mm
08:20 AM 48.6°F9.2°C 46.9°F8.3°C 94% Calm Calm -- 29.93 in1013.5 mb 0.00 in0.0 mm 0.00 in0.0 mm 0.00 in0.0 mm
10:00 AM 56.5°F13.6°C 53.9°F12.2°C 91% Calm Calm -- 29.91 in1012.9 mb 0.00 in0.0 mm 0.00 in0.0 mm 0.00 in0.0 mm
10:10 AM 57.7°F14.3°C 53.9°F12.2°C 87% 0.7 mph E1.1 kmh E 3.0 mph4.8 kmh 29.90 in1012.5 mb 0.00 in0.0 mm 0.00 in0.0 mm 0.00 in0.0 mm
10:20 AM 58.6°F14.8°C 53.5°F11.9°C 83% Calm Calm -- 29.90 in1012.5 mb 0.00 in0.0 mm 0.00 in0.0 mm 0.00 in0.0 mm
12:00 PM 66.9°F19.4°C 54.3°F12.4°C 64% 1.7 mph NE2.7 kmh NE 3.0 mph4.8 kmh 29.85 in1010.8 mb 0.00 in0.0 mm 0.00 in0.0 mm 0.00 in0.0 mm
12:10 PM 66.7°F19.3°C 54.6°F12.6°C 65% Calm Calm -- 29.84 in1010.5 mb 0.00 in0.0 mm 0.00 in0.0 mm 0.00 in0.0 mm
12:20 PM 68.2°F20.1°C 55.5°F13.1°C 64% 3.1 mph ENE5.0 kmh ENE 4.0 mph6.4 kmh 29.83 in1010.2 mb 0.00 in0.0 mm 0.00 in0.0 mm 0.00 in0.0 mm
02:00 PM 70.5°F21.4°C 56.9°F13.8°C 62% 2.2 mph NE3.5 kmh NE 3.0 mph4.8 kmh 29.79 in1008.8 mb 0.00 in0.0 mm 0.00 in0.0 mm 0.00 in0.0 mm
02:10 PM 70.3°F21.3°C 56.7°F13.7°C 62% 1.6 mph E2.6 kmh E 2.0 mph3.2 kmh 29.78 in1008.5 mb 0.00 in0.0 mm 0.00 in0.0 mm 0.00 in0.0 mm
02:20 PM 70.2°F21.2°C 57.8°F14.3°C 65% Calm Calm -- 29.78 in1008.5 mb 0.00 in0.0 mm 0.00 in0.0 mm 0.00 in0.0 mm
04:00 PM 72.0°F22.2°C 58.2°F14.6°C 62% Calm Calm -- 29.75 in1007.5 mb 0.00 in0.0 mm 0.00 in0.0 mm 0.00 in0.0 mm
04:10 PM 72.9°F22.7°C 59.1°F15.1°C 62% Calm Calm -- 29.75 in1007.5 mb 0.00 in0.0 mm 0.00 in0.0 mm 0.00 in0.0 mm
04:20 PM 71.4°F21.9°C 58.2°F14.6°C 63% Calm Calm -- 29.75 in1007.5 mb 0.00 in0.0 mm 0.00 in0.0 mm 0.00 in0.0 mm
06:00 PM 65.1°F18.4°C 57.7°F14.3°C 77% Calm Calm -- 29.72 in1006.4 mb 0.00 in0.0 mm 0.00 in0.0 mm 0.00 in0.0 mm
06:10 PM 64.0°F17.8°C 57.0°F13.9°C 78% Calm Calm -- 29.73 in1006.8 mb 0.00 in0.0 mm 0.00 in0.0 mm 0.00 in0.0 mm
06:20 PM 63.1°F17.3°C 55.8°F13.2°C 77% Calm Calm -- 29.73 in1006.8 mb 0.00 in0.0 mm 0.00 in0.0 mm 0.00 in0.0 mm
08:00 PM 63.5°F17.5°C 50.7°F10.4°C 63% Calm Calm -- 29.72 in1006.4 mb 0.00 in0.0 mm 0.00 in0.0 mm 0.00 in0.0 mm
08:10 PM 63.3°F17.4°C 50.5°F10.3°C 63% Calm Calm -- 29.72 in1006.4 mb 0.00 in0.0 mm 0.00 in0.0 mm 0.00 in0.0 mm
08:20 PM 63.0°F17.2°C 51.0°F10.6°C 65% Calm Calm -- 29.72 in1006.4 mb 0.00 in0.0 mm 0.00 in0.0 mm 0.00 in0.0 mm
10:00 PM 67.5°F19.7°C 48.7°F9.3°C 51% 6.1 mph SW9.8 kmh SW 11.0 mph17.7 kmh 29.72 in1006.4 mb 0.00 in0.0 mm 0.00 in0.0 mm 0.00 in0.0 mm
10:10 PM 67.6°F19.8°C 48.9°F9.4°C 51% 5.2 mph N8.4 kmh N 11.0 mph17.7 kmh 29.72 in1006.4 mb 0.00 in0.0 mm 0.00 in0.0 mm 0.00 in0.0 mm
10:20 PM 67.3°F19.6°C 49.0°F9.4°C 52% 3.7 mph WSW6.0 kmh WSW 8.0 mph12.9 kmh 29.72 in1006.4 mb 0.00 in0.0 mm 0.00 in0.0 mm 0.00 in0.0 mm